Terminal Aerodrome Forecast
Issued by NWS

Home | Current Version | Previous Version | Text Only | Print | Product List | Glossary Off
Versions: 1 2 3 4 5 6 7 8 9 10 11 12 13 14

000
FTUS43 KICT 221143
TAFRSL
TAF
KRSL 221143Z 2212/2312 26010KT P6SM VCSH OVC070
     FM222300 21008KT P6SM VCTS OVC070CB
     FM230400 32011KT P6SM VCSH BKN050=

USA.gov is the U.S. government's official web portal to all federal, state and local government web resources and services.